sensor_id;sensor_type;location;lat;lon;timestamp;pressure;altitude;pressure_sealevel;temperature;humidity
18500;BME280;9379;52.134;11.576;2023-08-31T00:02:26;99984.53;;;18.53;97.71
18500;BME280;9379;52.134;11.576;2023-08-31T00:04:53;99980.94;;;18.40;97.59
18500;BME280;9379;52.134;11.576;2023-08-31T00:07:23;99978.81;;;18.28;98.86
18500;BME280;9379;52.134;11.576;2023-08-31T00:09:52;99973.38;;;18.08;98.97
18500;BME280;9379;52.134;11.576;2023-08-31T00:12:20;99980.81;;;18.06;99.40
18500;BME280;9379;52.134;11.576;2023-08-31T00:14:49;99968.75;;;17.96;99.31
18500;BME280;9379;52.134;11.576;2023-08-31T00:17:17;99974.22;;;18.09;98.93
18500;BME280;9379;52.134;11.576;2023-08-31T00:19:44;99975.28;;;18.21;98.92
18500;BME280;9379;52.134;11.576;2023-08-31T00:22:11;99972.44;;;17.88;100.00
18500;BME280;9379;52.134;11.576;2023-08-31T00:24:38;99980.28;;;17.83;100.00
18500;BME280;9379;52.134;11.576;2023-08-31T00:27:07;99983.19;;;17.88;100.00
18500;BME280;9379;52.134;11.576;2023-08-31T00:29:35;99980.72;;;17.65;100.00
18500;BME280;9379;52.134;11.576;2023-08-31T00:32:04;99983.41;;;17.93;100.00
18500;BME280;9379;52.134;11.576;2023-08-31T00:34:31;99987.88;;;17.79;100.00
18500;BME280;9379;52.134;11.576;2023-08-31T00:36:58;99991.31;;;17.95;99.84
18500;BME280;9379;52.134;11.576;2023-08-31T00:39:26;99995.31;;;17.49;100.00
18500;BME280;9379;52.134;11.576;2023-08-31T00:41:53;99992.16;;;17.46;100.00
18500;BME280;9379;52.134;11.576;2023-08-31T00:44:23;99996.41;;;17.34;100.00
18500;BME280;9379;52.134;11.576;2023-08-31T00:46:50;99987.53;;;17.12;100.00
18500;BME280;9379;52.134;11.576;2023-08-31T00:49:17;100001.25;;;17.24;100.00
18500;BME280;9379;52.134;11.576;2023-08-31T00:51:45;99994.31;;;17.08;100.00
18500;BME280;9379;52.134;11.576;2023-08-31T00:54:14;99993.03;;;17.25;100.00
18500;BME280;9379;52.134;11.576;2023-08-31T00:56:42;99990.84;;;17.35;100.00
18500;BME280;9379;52.134;11.576;2023-08-31T00:59:10;99992.63;;;17.49;100.00
18500;BME280;9379;52.134;11.576;2023-08-31T01:01:41;99996.91;;;17.44;100.00
18500;BME280;9379;52.134;11.576;2023-08-31T01:07:34;99975.13;;;17.32;99.26
18500;BME280;9379;52.134;11.576;2023-08-31T01:10:08;99994.16;;;17.65;98.68
18500;BME280;9379;52.134;11.576;2023-08-31T01:12:49;99993.22;;;17.73;99.08
18500;BME280;9379;52.134;11.576;2023-08-31T01:15:17;99997.22;;;17.34;98.93
18500;BME280;9379;52.134;11.576;2023-08-31T01:17:49;99994.84;;;17.46;98.42
18500;BME280;9379;52.134;11.576;2023-08-31T01:20:26;99994.81;;;17.39;98.96
18500;BME280;9379;52.134;11.576;2023-08-31T01:22:58;99996.69;;;17.45;99.29
18500;BME280;9379;52.134;11.576;2023-08-31T01:25:31;99975.63;;;17.21;99.50
18500;BME280;9379;52.134;11.576;2023-08-31T01:27:59;99992.94;;;17.40;98.60
18500;BME280;9379;52.134;11.576;2023-08-31T01:30:30;100006.72;;;17.58;98.59
18500;BME280;9379;52.134;11.576;2023-08-31T01:32:58;99998.53;;;17.66;98.25
18500;BME280;9379;52.134;11.576;2023-08-31T01:35:26;100011.59;;;17.69;97.57
18500;BME280;9379;52.134;11.576;2023-08-31T01:37:57;100001.09;;;17.74;98.17
18500;BME280;9379;52.134;11.576;2023-08-31T01:40:33;100008.69;;;17.99;98.24
18500;BME280;9379;52.134;11.576;2023-08-31T01:43:01;100008.00;;;17.90;97.15
18500;BME280;9379;52.134;11.576;2023-08-31T01:45:30;100013.09;;;18.06;98.06
18500;BME280;9379;52.134;11.576;2023-08-31T01:47:59;100012.75;;;17.88;97.98
18500;BME280;9379;52.134;11.576;2023-08-31T01:50:26;100012.88;;;17.52;98.69
18500;BME280;9379;52.134;11.576;2023-08-31T01:52:53;100022.19;;;17.77;98.07
18500;BME280;9379;52.134;11.576;2023-08-31T01:55:21;100016.75;;;17.99;97.89
18500;BME280;9379;52.134;11.576;2023-08-31T01:57:50;100016.06;;;17.90;97.68
18500;BME280;9379;52.134;11.576;2023-08-31T02:00:18;100021.94;;;18.00;98.00
18500;BME280;9379;52.134;11.576;2023-08-31T02:02:46;100011.59;;;18.04;97.60
18500;BME280;9379;52.134;11.576;2023-08-31T02:05:13;100028.75;;;18.37;97.72
18500;BME280;9379;52.134;11.576;2023-08-31T02:07:40;100031.84;;;18.34;95.84
18500;BME280;9379;52.134;11.576;2023-08-31T02:10:07;100033.50;;;18.35;96.82
18500;BME280;9379;52.134;11.576;2023-08-31T02:12:36;100036.84;;;18.03;96.39
18500;BME280;9379;52.134;11.576;2023-08-31T02:15:06;100034.16;;;18.03;97.01
18500;BME280;9379;52.134;11.576;2023-08-31T02:17:34;100036.84;;;18.44;96.39
18500;BME280;9379;52.134;11.576;2023-08-31T02:20:01;100039.88;;;18.28;96.63
18500;BME280;9379;52.134;11.576;2023-08-31T02:22:30;100039.00;;;17.86;97.44
18500;BME280;9379;52.134;11.576;2023-08-31T02:24:57;100038.28;;;18.05;97.52
18500;BME280;9379;52.134;11.576;2023-08-31T02:27:24;100047.25;;;18.54;96.68
18500;BME280;9379;52.134;11.576;2023-08-31T02:29:52;100049.97;;;18.19;96.47
18500;BME280;9379;52.134;11.576;2023-08-31T02:32:20;100051.44;;;17.94;96.68
18500;BME280;9379;52.134;11.576;2023-08-31T02:34:48;100053.25;;;18.15;97.52
18500;BME280;9379;52.134;11.576;2023-08-31T02:37:15;100053.03;;;17.82;97.98
18500;BME280;9379;52.134;11.576;2023-08-31T02:39:42;100056.81;;;17.94;97.31
18500;BME280;9379;52.134;11.576;2023-08-31T02:42:09;100062.81;;;18.24;97.84
18500;BME280;9379;52.134;11.576;2023-08-31T02:44:36;100067.03;;;18.40;96.31
18500;BME280;9379;52.134;11.576;2023-08-31T02:47:03;100068.41;;;18.22;96.87
18500;BME280;9379;52.134;11.576;2023-08-31T02:49:32;100059.94;;;18.25;97.42
18500;BME280;9379;52.134;11.576;2023-08-31T02:51:59;100058.34;;;18.37;96.85
18500;BME280;9379;52.134;11.576;2023-08-31T02:54:26;100048.66;;;18.43;96.62
18500;BME280;9379;52.134;11.576;2023-08-31T02:56:53;100054.41;;;18.33;94.95
18500;BME280;9379;52.134;11.576;2023-08-31T02:59:19;100051.25;;;18.23;94.63
18500;BME280;9379;52.134;11.576;2023-08-31T03:01:48;100054.66;;;18.45;95.39
18500;BME280;9379;52.134;11.576;2023-08-31T03:04:15;100051.00;;;18.59;95.07
18500;BME280;9379;52.134;11.576;2023-08-31T03:06:44;100047.47;;;18.52;94.51
18500;BME280;9379;52.134;11.576;2023-08-31T03:09:12;100045.91;;;18.30;95.29
18500;BME280;9379;52.134;11.576;2023-08-31T03:11:40;100054.44;;;18.05;95.54
18500;BME280;9379;52.134;11.576;2023-08-31T03:14:07;100057.41;;;18.17;94.72
18500;BME280;9379;52.134;11.576;2023-08-31T03:16:35;100040.28;;;18.25;95.65
18500;BME280;9379;52.134;11.576;2023-08-31T03:19:02;100045.81;;;18.17;95.64
18500;BME280;9379;52.134;11.576;2023-08-31T03:21:30;100038.19;;;18.20;95.92
18500;BME280;9379;52.134;11.576;2023-08-31T03:23:59;100051.00;;;18.18;95.30
18500;BME280;9379;52.134;11.576;2023-08-31T03:26:26;100055.38;;;18.19;94.83
18500;BME280;9379;52.134;11.576;2023-08-31T03:28:53;100056.81;;;17.94;95.98
18500;BME280;9379;52.134;11.576;2023-08-31T03:31:20;100059.72;;;18.20;95.39
18500;BME280;9379;52.134;11.576;2023-08-31T03:33:47;100058.88;;;17.92;96.48
18500;BME280;9379;52.134;11.576;2023-08-31T03:36:16;100058.78;;;17.78;96.41
18500;BME280;9379;52.134;11.576;2023-08-31T03:38:43;100060.75;;;17.91;96.28
18500;BME280;9379;52.134;11.576;2023-08-31T03:41:12;100065.41;;;17.33;96.94
18500;BME280;9379;52.134;11.576;2023-08-31T03:43:39;100078.00;;;17.33;97.72
18500;BME280;9379;52.134;11.576;2023-08-31T03:46:07;100075.50;;;17.53;97.79
18500;BME280;9379;52.134;11.576;2023-08-31T03:48:34;100073.56;;;17.68;97.77
18500;BME280;9379;52.134;11.576;2023-08-31T03:51:01;100074.53;;;17.82;96.58
18500;BME280;9379;52.134;11.576;2023-08-31T03:53:30;100083.78;;;17.72;95.71
18500;BME280;9379;52.134;11.576;2023-08-31T03:55:58;100081.19;;;17.64;96.60
18500;BME280;9379;52.134;11.576;2023-08-31T03:58:26;100093.91;;;17.34;96.79
18500;BME280;9379;52.134;11.576;2023-08-31T04:00:54;100093.50;;;17.73;97.08
18500;BME280;9379;52.134;11.576;2023-08-31T04:03:21;100082.03;;;17.86;96.26
18500;BME280;9379;52.134;11.576;2023-08-31T04:05:54;100093.22;;;17.90;95.07
18500;BME280;9379;52.134;11.576;2023-08-31T04:08:21;100092.34;;;17.61;94.50
18500;BME280;9379;52.134;11.576;2023-08-31T04:10:48;100097.03;;;17.59;96.35
18500;BME280;9379;52.134;11.576;2023-08-31T04:13:15;100099.56;;;17.61;94.96
18500;BME280;9379;52.134;11.576;2023-08-31T04:15:44;100094.75;;;17.56;94.88
18500;BME280;9379;52.134;11.576;2023-08-31T04:18:11;100096.69;;;17.19;95.86
18500;BME280;9379;52.134;11.576;2023-08-31T04:20:38;100103.56;;;17.07;96.48
18500;BME280;9379;52.134;11.576;2023-08-31T04:23:05;100100.09;;;16.92;96.88
18500;BME280;9379;52.134;11.576;2023-08-31T04:25:32;100099.94;;;17.15;96.68
18500;BME280;9379;52.134;11.576;2023-08-31T04:27:59;100107.22;;;17.21;95.83
18500;BME280;9379;52.134;11.576;2023-08-31T04:30:27;100102.50;;;16.87;96.12
18500;BME280;9379;52.134;11.576;2023-08-31T04:33:00;100106.78;;;17.17;95.76
18500;BME280;9379;52.134;11.576;2023-08-31T04:35:29;100109.31;;;17.04;95.42
18500;BME280;9379;52.134;11.576;2023-08-31T04:37:57;100102.38;;;17.31;95.56
18500;BME280;9379;52.134;11.576;2023-08-31T04:40:25;100106.22;;;17.43;94.70
18500;BME280;9379;52.134;11.576;2023-08-31T04:42:55;100096.16;;;17.31;94.73
18500;BME280;9379;52.134;11.576;2023-08-31T04:45:22;100115.84;;;17.74;94.47
18500;BME280;9379;52.134;11.576;2023-08-31T04:47:49;100110.00;;;17.13;94.15
18500;BME280;9379;52.134;11.576;2023-08-31T04:50:18;100115.22;;;17.36;94.68
18500;BME280;9379;52.134;11.576;2023-08-31T04:52:44;100122.84;;;17.32;95.07
18500;BME280;9379;52.134;11.576;2023-08-31T04:55:12;100121.34;;;17.08;94.88
18500;BME280;9379;52.134;11.576;2023-08-31T04:57:40;100126.31;;;17.26;93.34
18500;BME280;9379;52.134;11.576;2023-08-31T05:00:07;100128.09;;;17.40;94.92
18500;BME280;9379;52.134;11.576;2023-08-31T06:30:31;100212.00;;;17.78;91.54
18500;BME280;9379;52.134;11.576;2023-08-31T06:32:57;100220.66;;;17.59;91.14
18500;BME280;9379;52.134;11.576;2023-08-31T06:35:25;100221.13;;;17.63;91.94
18500;BME280;9379;52.134;11.576;2023-08-31T06:37:52;100222.88;;;18.13;91.28
18500;BME280;9379;52.134;11.576;2023-08-31T06:40:21;100222.44;;;17.88;91.36
18500;BME280;9379;52.134;11.576;2023-08-31T06:42:48;100229.28;;;17.69;90.99
18500;BME280;9379;52.134;11.576;2023-08-31T06:45:19;100238.63;;;18.16;90.23
18500;BME280;9379;52.134;11.576;2023-08-31T06:47:49;100225.53;;;17.85;89.76
18500;BME280;9379;52.134;11.576;2023-08-31T06:50:17;100236.03;;;18.01;91.07
18500;BME280;9379;52.134;11.576;2023-08-31T06:52:44;100239.09;;;17.62;90.85
18500;BME280;9379;52.134;11.576;2023-08-31T06:55:12;100244.09;;;17.65;90.89
18500;BME280;9379;52.134;11.576;2023-08-31T06:57:38;100238.91;;;17.64;91.25
18500;BME280;9379;52.134;11.576;2023-08-31T07:00:08;100244.81;;;17.23;91.28
18500;BME280;9379;52.134;11.576;2023-08-31T07:02:39;100238.47;;;17.60;91.77
18500;BME280;9379;52.134;11.576;2023-08-31T07:05:10;100245.00;;;18.36;90.63
18500;BME280;9379;52.134;11.576;2023-08-31T07:07:38;100243.34;;;18.07;90.13
18500;BME280;9379;52.134;11.576;2023-08-31T07:10:07;100244.84;;;17.74;90.18
18500;BME280;9379;52.134;11.576;2023-08-31T07:12:35;100250.69;;;17.99;91.43
18500;BME280;9379;52.134;11.576;2023-08-31T07:15:02;100244.88;;;17.95;90.46
18500;BME280;9379;52.134;11.576;2023-08-31T07:17:29;100248.75;;;17.71;90.64
18500;BME280;9379;52.134;11.576;2023-08-31T07:19:56;100249.75;;;18.34;90.24
18500;BME280;9379;52.134;11.576;2023-08-31T07:22:25;100245.63;;;18.11;89.49
18500;BME280;9379;52.134;11.576;2023-08-31T07:24:52;100241.06;;;17.90;89.60
18500;BME280;9379;52.134;11.576;2023-08-31T07:27:18;100255.34;;;18.12;89.02
18500;BME280;9379;52.134;11.576;2023-08-31T07:29:45;100254.84;;;18.01;88.83
18500;BME280;9379;52.134;11.576;2023-08-31T07:32:12;100259.31;;;18.37;88.11
18500;BME280;9379;52.134;11.576;2023-08-31T07:34:39;100255.47;;;18.25;88.34
18500;BME280;9379;52.134;11.576;2023-08-31T07:37:06;100262.84;;;17.95;88.64
18500;BME280;9379;52.134;11.576;2023-08-31T07:39:35;100255.59;;;17.74;88.71
18500;BME280;9379;52.134;11.576;2023-08-31T07:42:02;100250.91;;;18.47;87.33
18500;BME280;9379;52.134;11.576;2023-08-31T07:44:29;100258.53;;;18.99;87.62
18500;BME280;9379;52.134;11.576;2023-08-31T07:46:56;100254.41;;;18.19;86.88
18500;BME280;9379;52.134;11.576;2023-08-31T07:49:23;100259.38;;;18.44;88.99
18500;BME280;9379;52.134;11.576;2023-08-31T07:51:50;100258.56;;;18.22;87.68
18500;BME280;9379;52.134;11.576;2023-08-31T07:54:20;100261.25;;;18.50;86.28
18500;BME280;9379;52.134;11.576;2023-08-31T07:56:50;100264.06;;;18.14;87.51
18500;BME280;9379;52.134;11.576;2023-08-31T07:59:18;100263.59;;;18.53;87.30
18500;BME280;9379;52.134;11.576;2023-08-31T08:01:45;100262.97;;;18.79;86.19
18500;BME280;9379;52.134;11.576;2023-08-31T08:04:13;100261.75;;;18.32;86.49
18500;BME280;9379;52.134;11.576;2023-08-31T08:06:40;100261.66;;;18.68;86.74
18500;BME280;9379;52.134;11.576;2023-08-31T08:09:11;100270.59;;;18.04;87.98
18500;BME280;9379;52.134;11.576;2023-08-31T08:11:38;100268.78;;;18.54;88.19
18500;BME280;9379;52.134;11.576;2023-08-31T08:14:06;100273.66;;;18.44;85.16
18500;BME280;9379;52.134;11.576;2023-08-31T08:16:33;100266.22;;;18.46;85.20
18500;BME280;9379;52.134;11.576;2023-08-31T08:19:02;100262.50;;;19.03;84.48
18500;BME280;9379;52.134;11.576;2023-08-31T08:21:29;100264.34;;;18.68;84.27
18500;BME280;9379;52.134;11.576;2023-08-31T08:23:56;100264.09;;;18.91;85.21
18500;BME280;9379;52.134;11.576;2023-08-31T08:26:23;100272.38;;;19.31;82.41
18500;BME280;9379;52.134;11.576;2023-08-31T08:28:51;100277.44;;;19.53;84.43
18500;BME280;9379;52.134;11.576;2023-08-31T08:31:20;100273.81;;;19.74;81.88
18500;BME280;9379;52.134;11.576;2023-08-31T08:33:46;100268.84;;;18.89;84.11
18500;BME280;9379;52.134;11.576;2023-08-31T08:36:13;100270.34;;;18.70;83.56
18500;BME280;9379;52.134;11.576;2023-08-31T08:38:41;100272.38;;;18.89;82.84
18500;BME280;9379;52.134;11.576;2023-08-31T08:41:09;100278.41;;;18.21;83.21
18500;BME280;9379;52.134;11.576;2023-08-31T08:43:37;100274.28;;;18.46;83.45
18500;BME280;9379;52.134;11.576;2023-08-31T08:46:08;100282.75;;;18.64;83.97
18500;BME280;9379;52.134;11.576;2023-08-31T08:48:38;100282.50;;;18.87;83.85
18500;BME280;9379;52.134;11.576;2023-08-31T08:51:06;100282.78;;;18.71;84.20
18500;BME280;9379;52.134;11.576;2023-08-31T08:53:34;100281.56;;;19.08;84.15
18500;BME280;9379;52.134;11.576;2023-08-31T08:56:04;100274.75;;;19.53;83.28
18500;BME280;9379;52.134;11.576;2023-08-31T08:58:31;100276.50;;;19.27;82.66
18500;BME280;9379;52.134;11.576;2023-08-31T09:00:58;100282.75;;;18.64;79.78
18500;BME280;9379;52.134;11.576;2023-08-31T09:03:24;100272.09;;;19.12;81.87
18500;BME280;9379;52.134;11.576;2023-08-31T09:05:53;100265.13;;;18.97;80.58
18500;BME280;9379;52.134;11.576;2023-08-31T09:08:25;100274.94;;;19.52;81.27
18500;BME280;9379;52.134;11.576;2023-08-31T09:10:55;100276.53;;;19.81;79.28
18500;BME280;9379;52.134;11.576;2023-08-31T09:13:26;100274.25;;;19.85;79.31
18500;BME280;9379;52.134;11.576;2023-08-31T09:15:54;100277.34;;;19.75;79.03
18500;BME280;9379;52.134;11.576;2023-08-31T09:18:23;100267.44;;;19.34;79.01
18500;BME280;9379;52.134;11.576;2023-08-31T09:20:53;100271.94;;;19.68;79.43
18500;BME280;9379;52.134;11.576;2023-08-31T09:23:22;100285.91;;;19.98;80.14
18500;BME280;9379;52.134;11.576;2023-08-31T09:25:50;100286.16;;;20.03;78.04
18500;BME280;9379;52.134;11.576;2023-08-31T09:28:20;100288.59;;;19.37;78.17
18500;BME280;9379;52.134;11.576;2023-08-31T09:30:49;100280.66;;;19.77;76.42
18500;BME280;9379;52.134;11.576;2023-08-31T09:33:18;100268.03;;;19.91;77.37
18500;BME280;9379;52.134;11.576;2023-08-31T09:35:50;100283.13;;;19.24;75.91
18500;BME280;9379;52.134;11.576;2023-08-31T09:38:19;100282.13;;;19.73;77.09
18500;BME280;9379;52.134;11.576;2023-08-31T09:40:47;100280.91;;;19.89;76.47
18500;BME280;9379;52.134;11.576;2023-08-31T09:43:19;100274.94;;;20.33;75.85
18500;BME280;9379;52.134;11.576;2023-08-31T09:45:49;100277.25;;;20.16;75.12
18500;BME280;9379;52.134;11.576;2023-08-31T09:48:17;100280.94;;;19.95;75.34
18500;BME280;9379;52.134;11.576;2023-08-31T09:50:45;100276.81;;;20.06;74.77
18500;BME280;9379;52.134;11.576;2023-08-31T09:53:12;100277.84;;;20.25;74.43
18500;BME280;9379;52.134;11.576;2023-08-31T09:55:43;100273.25;;;19.99;74.80
18500;BME280;9379;52.134;11.576;2023-08-31T09:58:11;100266.06;;;20.52;74.68
18500;BME280;9379;52.134;11.576;2023-08-31T10:00:40;100264.09;;;21.12;75.93
18500;BME280;9379;52.134;11.576;2023-08-31T10:03:08;100261.63;;;21.04;71.93
18500;BME280;9379;52.134;11.576;2023-08-31T10:05:40;100261.38;;;21.19;73.67
18500;BME280;9379;52.134;11.576;2023-08-31T10:08:07;100273.72;;;20.82;73.60
18500;BME280;9379;52.134;11.576;2023-08-31T10:10:34;100272.44;;;20.05;71.87
18500;BME280;9379;52.134;11.576;2023-08-31T10:13:04;100267.50;;;20.55;72.41
18500;BME280;9379;52.134;11.576;2023-08-31T10:15:32;100259.84;;;20.52;71.60
18500;BME280;9379;52.134;11.576;2023-08-31T10:18:00;100266.47;;;20.69;71.37
18500;BME280;9379;52.134;11.576;2023-08-31T10:20:28;100260.13;;;21.15;71.61
18500;BME280;9379;52.134;11.576;2023-08-31T10:22:57;100263.56;;;20.84;71.11
18500;BME280;9379;52.134;11.576;2023-08-31T10:25:24;100248.25;;;21.36;69.39
18500;BME280;9379;52.134;11.576;2023-08-31T10:27:52;100255.03;;;21.51;71.79
18500;BME280;9379;52.134;11.576;2023-08-31T10:30:27;100264.69;;;21.27;70.95
18500;BME280;9379;52.134;11.576;2023-08-31T10:33:21;100259.22;;;21.41;69.74
18500;BME280;9379;52.134;11.576;2023-08-31T10:35:51;100262.84;;;22.04;72.09
18500;BME280;9379;52.134;11.576;2023-08-31T10:38:26;100259.38;;;22.29;69.28
18500;BME280;9379;52.134;11.576;2023-08-31T10:41:16;100255.25;;;22.26;68.66
18500;BME280;9379;52.134;11.576;2023-08-31T10:43:46;100254.81;;;22.23;71.93
18500;BME280;9379;52.134;11.576;2023-08-31T10:46:30;100244.91;;;22.17;69.60
18500;BME280;9379;52.134;11.576;2023-08-31T10:48:58;100233.63;;;21.88;70.20
18500;BME280;9379;52.134;11.576;2023-08-31T10:51:28;100240.13;;;21.36;69.25
18500;BME280;9379;52.134;11.576;2023-08-31T10:54:05;100246.09;;;20.86;71.29
18500;BME280;9379;52.134;11.576;2023-08-31T10:56:51;100241.66;;;21.05;71.36
18500;BME280;9379;52.134;11.576;2023-08-31T10:59:19;100244.53;;;21.17;71.10
18500;BME280;9379;52.134;11.576;2023-08-31T11:01:59;100234.97;;;21.27;70.65
18500;BME280;9379;52.134;11.576;2023-08-31T11:04:29;100233.31;;;21.26;71.16
18500;BME280;9379;52.134;11.576;2023-08-31T11:07:16;100242.47;;;21.25;68.05
18500;BME280;9379;52.134;11.576;2023-08-31T11:09:46;100235.56;;;21.74;69.36
18500;BME280;9379;52.134;11.576;2023-08-31T11:12:13;100226.00;;;21.72;67.77
18500;BME280;9379;52.134;11.576;2023-08-31T11:14:40;100245.00;;;21.97;68.43
18500;BME280;9379;52.134;11.576;2023-08-31T11:17:10;100238.56;;;21.60;68.54
18500;BME280;9379;52.134;11.576;2023-08-31T11:19:37;100241.47;;;20.93;70.15
18500;BME280;9379;52.134;11.576;2023-08-31T11:22:05;100238.84;;;20.67;69.63
18500;BME280;9379;52.134;11.576;2023-08-31T11:24:35;100249.03;;;20.45;71.12
18500;BME280;9379;52.134;11.576;2023-08-31T11:27:02;100249.25;;;20.44;70.32
18500;BME280;9379;52.134;11.576;2023-08-31T11:29:29;100259.81;;;20.65;71.90
18500;BME280;9379;52.134;11.576;2023-08-31T11:31:56;100249.44;;;20.29;70.96
18500;BME280;9379;52.134;11.576;2023-08-31T11:34:27;100259.00;;;20.64;68.54
18500;BME280;9379;52.134;11.576;2023-08-31T11:36:55;100258.31;;;20.09;72.66
18500;BME280;9379;52.134;11.576;2023-08-31T11:39:24;100268.94;;;20.31;70.77
18500;BME280;9379;52.134;11.576;2023-08-31T11:41:51;100268.91;;;19.98;71.42
18500;BME280;9379;52.134;11.576;2023-08-31T11:44:18;100271.41;;;20.26;71.46
18500;BME280;9379;52.134;11.576;2023-08-31T11:46:46;100273.66;;;19.96;74.15
18500;BME280;9379;52.134;11.576;2023-08-31T11:49:15;100265.97;;;19.86;75.99
18500;BME280;9379;52.134;11.576;2023-08-31T11:51:46;100264.91;;;19.74;75.99
18500;BME280;9379;52.134;11.576;2023-08-31T11:54:18;100269.34;;;20.08;76.64
18500;BME280;9379;52.134;11.576;2023-08-31T11:56:46;100274.72;;;19.95;76.17
18500;BME280;9379;52.134;11.576;2023-08-31T11:59:17;100325.13;;;19.53;75.78
18500;BME280;9379;52.134;11.576;2023-08-31T12:01:46;100351.69;;;18.23;88.46
18500;BME280;9379;52.134;11.576;2023-08-31T12:04:16;100378.38;;;17.14;93.71
18500;BME280;9379;52.134;11.576;2023-08-31T12:12:39;100341.28;;;16.80;95.59
18500;BME280;9379;52.134;11.576;2023-08-31T12:15:06;100327.69;;;16.82;97.25
18500;BME280;9379;52.134;11.576;2023-08-31T12:17:37;100319.53;;;16.90;95.44
18500;BME280;9379;52.134;11.576;2023-08-31T12:20:05;100312.25;;;17.43;94.14
18500;BME280;9379;52.134;11.576;2023-08-31T12:22:33;100309.41;;;17.95;94.58
18500;BME280;9379;52.134;11.576;2023-08-31T12:25:00;100304.06;;;18.94;91.80
18500;BME280;9379;52.134;11.576;2023-08-31T12:27:27;100312.78;;;18.47;94.36
18500;BME280;9379;52.134;11.576;2023-08-31T12:29:56;100308.56;;;19.15;93.68
18500;BME280;9379;52.134;11.576;2023-08-31T12:32:24;100304.63;;;19.17;93.37
18500;BME280;9379;52.134;11.576;2023-08-31T12:34:51;100318.38;;;18.45;92.54
18500;BME280;9379;52.134;11.576;2023-08-31T12:37:18;100316.75;;;18.72;94.57
18500;BME280;9379;52.134;11.576;2023-08-31T12:39:45;100313.19;;;18.44;92.84
18500;BME280;9379;52.134;11.576;2023-08-31T12:42:14;100316.72;;;18.44;93.56
18500;BME280;9379;52.134;11.576;2023-08-31T12:44:41;100324.66;;;18.52;94.12
18500;BME280;9379;52.134;11.576;2023-08-31T12:47:09;100328.16;;;18.10;93.75
18500;BME280;9379;52.134;11.576;2023-08-31T12:49:36;100322.69;;;18.18;93.08
18500;BME280;9379;52.134;11.576;2023-08-31T12:52:04;100327.88;;;18.41;91.74
18500;BME280;9379;52.134;11.576;2023-08-31T12:54:31;100332.13;;;18.14;94.40
18500;BME280;9379;52.134;11.576;2023-08-31T12:56:59;100343.19;;;18.04;94.56
18500;BME280;9379;52.134;11.576;2023-08-31T12:59:26;100345.13;;;17.74;95.87
18500;BME280;9379;52.134;11.576;2023-08-31T13:01:53;100354.34;;;18.01;97.56
18500;BME280;9379;52.134;11.576;2023-08-31T13:04:21;100357.50;;;17.90;97.68
18500;BME280;9379;52.134;11.576;2023-08-31T13:06:49;100373.50;;;17.77;99.91
18500;BME280;9379;52.134;11.576;2023-08-31T13:09:16;100366.88;;;17.65;99.69
18500;BME280;9379;52.134;11.576;2023-08-31T13:11:43;100375.09;;;18.29;97.65
18500;BME280;9379;52.134;11.576;2023-08-31T13:14:11;100376.19;;;18.13;99.13
18500;BME280;9379;52.134;11.576;2023-08-31T13:16:39;100370.41;;;18.52;97.08
18500;BME280;9379;52.134;11.576;2023-08-31T13:19:08;100363.91;;;18.47;96.40
18500;BME280;9379;52.134;11.576;2023-08-31T13:21:39;100361.00;;;18.05;96.26
18500;BME280;9379;52.134;11.576;2023-08-31T13:24:09;100371.59;;;18.64;95.41
18500;BME280;9379;52.134;11.576;2023-08-31T13:26:37;100366.84;;;17.94;93.74
18500;BME280;9379;52.134;11.576;2023-08-31T13:29:07;100360.13;;;18.20;92.99
18500;BME280;9379;52.134;11.576;2023-08-31T13:31:34;100362.88;;;17.90;92.49
18500;BME280;9379;52.134;11.576;2023-08-31T13:34:01;100352.91;;;18.05;92.56
18500;BME280;9379;52.134;11.576;2023-08-31T13:36:29;100352.41;;;17.95;94.19
18500;BME280;9379;52.134;11.576;2023-08-31T13:38:58;100357.13;;;17.93;92.39
18500;BME280;9379;52.134;11.576;2023-08-31T13:41:25;100338.31;;;17.93;91.72
18500;BME280;9379;52.134;11.576;2023-08-31T13:43:52;100348.91;;;18.37;91.37
18500;BME280;9379;52.134;11.576;2023-08-31T13:46:19;100342.38;;;18.47;93.18
18500;BME280;9379;52.134;11.576;2023-08-31T13:48:46;100332.38;;;18.41;91.61
18500;BME280;9379;52.134;11.576;2023-08-31T13:51:13;100330.81;;;17.89;90.31
18500;BME280;9379;52.134;11.576;2023-08-31T13:53:41;100323.66;;;18.60;93.21
18500;BME280;9379;52.134;11.576;2023-08-31T13:56:09;100314.06;;;18.72;91.51
18500;BME280;9379;52.134;11.576;2023-08-31T13:58:37;100312.06;;;18.81;93.21
18500;BME280;9379;52.134;11.576;2023-08-31T14:01:05;100295.63;;;18.48;90.70
18500;BME280;9379;52.134;11.576;2023-08-31T14:03:32;100293.63;;;18.78;90.31
18500;BME280;9379;52.134;11.576;2023-08-31T14:06:01;100300.41;;;18.74;88.55
18500;BME280;9379;52.134;11.576;2023-08-31T14:08:29;100291.59;;;18.86;89.91
18500;BME280;9379;52.134;11.576;2023-08-31T14:10:56;100296.75;;;18.81;88.07
18500;BME280;9379;52.134;11.576;2023-08-31T14:13:25;100298.41;;;18.82;88.24
18500;BME280;9379;52.134;11.576;2023-08-31T14:15:52;100287.72;;;18.95;87.99
18500;BME280;9379;52.134;11.576;2023-08-31T14:18:19;100282.75;;;18.64;85.01
18500;BME280;9379;52.134;11.576;2023-08-31T14:20:48;100288.19;;;19.06;86.52
18500;BME280;9379;52.134;11.576;2023-08-31T14:23:15;100301.84;;;19.39;86.65
18500;BME280;9379;52.134;11.576;2023-08-31T14:25:43;100306.91;;;19.14;85.02
18500;BME280;9379;52.134;11.576;2023-08-31T14:28:11;100299.03;;;18.84;86.63
18500;BME280;9379;52.134;11.576;2023-08-31T14:30:40;100306.34;;;18.90;84.88
18500;BME280;9379;52.134;11.576;2023-08-31T14:33:07;100309.34;;;19.09;84.21
18500;BME280;9379;52.134;11.576;2023-08-31T14:35:36;100315.19;;;19.53;84.12